createdAt,value
2022-11-12T00:00:33.623Z,6.20
2022-11-12T00:03:04.739Z,3.80
2022-11-12T00:05:35.780Z,4.20
2022-11-12T00:08:07.016Z,7.80
2022-11-12T00:10:37.343Z,8.80
2022-11-12T00:13:08.295Z,6.50
2022-11-12T00:15:38.843Z,9.80
2022-11-12T00:18:09.568Z,4.80
2022-11-12T00:20:40.326Z,6.50
2022-11-12T00:23:11.110Z,5.70
2022-11-12T00:25:41.647Z,5.30
2022-11-12T00:28:12.912Z,4.60
2022-11-12T00:30:43.571Z,6.10
2022-11-12T00:33:14.098Z,4.70
2022-11-12T00:35:44.787Z,5.00
2022-11-12T00:38:15.523Z,4.30
2022-11-12T00:40:45.870Z,5.60
2022-11-12T00:43:16.268Z,3.30
2022-11-12T00:45:46.666Z,4.50
2022-11-12T00:48:17.049Z,5.50
2022-11-12T00:50:47.988Z,2.80
2022-11-12T00:53:18.513Z,4.10
2022-11-12T00:55:48.834Z,2.50
2022-11-12T00:58:19.535Z,2.40
2022-11-12T01:00:49.957Z,2.30
2022-11-12T01:03:20.436Z,4.30
2022-11-12T01:05:51.054Z,2.10
2022-11-12T01:08:21.609Z,2.90
2022-11-12T01:10:52.029Z,2.30
2022-11-12T01:13:22.686Z,3.00
2022-11-12T01:15:53.071Z,3.60
2022-11-12T01:18:24.464Z,3.00
2022-11-12T01:20:55.720Z,2.40
2022-11-12T01:23:26.397Z,2.70
2022-11-12T01:25:57.209Z,2.10
2022-11-12T01:28:27.939Z,2.10
2022-11-12T01:30:58.629Z,3.80
2022-11-12T01:33:29.110Z,2.00
2022-11-12T01:36:02.200Z,1.80
2022-11-12T01:38:36.356Z,2.60
2022-11-12T01:41:08.412Z,2.40
2022-11-12T01:43:39.048Z,2.10
2022-11-12T01:46:18.479Z,2.40
2022-11-12T01:48:53.716Z,2.00
2022-11-12T01:51:27.494Z,2.90
2022-11-12T01:54:03.241Z,2.50
2022-11-12T01:56:34.811Z,2.10
2022-11-12T01:59:09.312Z,2.30
2022-11-12T02:01:40.511Z,2.40
2022-11-12T02:04:11.941Z,2.20
2022-11-12T02:06:44.383Z,2.00
2022-11-12T02:09:15.861Z,2.00
2022-11-12T02:11:47.102Z,3.20
2022-11-12T02:14:17.433Z,2.20
2022-11-12T02:16:49.700Z,2.70
2022-11-12T02:19:20.720Z,3.40
2022-11-12T02:21:51.673Z,3.40
2022-11-12T02:24:38.527Z,2.50
2022-11-12T02:27:10.652Z,2.60
2022-11-12T02:29:46.481Z,2.50
2022-11-12T02:32:17.215Z,2.40
2022-11-12T02:34:48.903Z,2.70
2022-11-12T02:37:19.533Z,3.20
2022-11-12T02:39:50.546Z,2.60
2022-11-12T02:42:21.903Z,2.20
2022-11-12T02:44:53.108Z,3.20
2022-11-12T02:47:24.537Z,3.40
2022-11-12T02:49:54.954Z,2.50
2022-11-12T02:52:26.174Z,3.30
2022-11-12T02:54:56.793Z,2.70
2022-11-12T02:57:27.456Z,3.00
2022-11-12T02:59:57.872Z,2.70
2022-11-12T03:02:28.492Z,2.20
2022-11-12T03:04:59.353Z,3.20
2022-11-12T03:07:30.278Z,3.20
2022-11-12T03:10:01.304Z,5.00
2022-11-12T03:12:33.164Z,3.50
2022-11-12T03:15:03.539Z,3.50
2022-11-12T03:17:35.047Z,2.30
2022-11-12T03:20:06.181Z,2.40
2022-11-12T03:22:37.751Z,2.40
2022-11-12T03:25:10.811Z,3.20
2022-11-12T03:27:41.162Z,2.50
2022-11-12T03:30:12.916Z,2.50
2022-11-12T03:32:43.547Z,2.20
2022-11-12T03:35:13.884Z,2.70
2022-11-12T03:37:44.623Z,3.80
2022-11-12T03:40:15.223Z,4.40
2022-11-12T03:42:49.405Z,2.20
2022-11-12T03:45:21.705Z,2.00
2022-11-12T03:47:54.106Z,2.40
2022-11-12T03:50:26.755Z,2.30
2022-11-12T03:53:00.484Z,1.80
2022-11-12T03:55:31.681Z,1.80
2022-11-12T03:58:02.104Z,2.50
2022-11-12T04:00:32.904Z,2.10
2022-11-12T04:03:03.238Z,3.60
2022-11-12T04:05:51.182Z,4.30
2022-11-12T04:08:39.313Z,2.80
2022-11-12T04:11:12.501Z,2.40
2022-11-12T04:13:43.400Z,2.20
2022-11-12T04:16:33.366Z,2.30
2022-11-12T04:19:23.042Z,2.80
2022-11-12T04:21:58.510Z,2.00
2022-11-12T04:24:48.429Z,2.10
2022-11-12T04:27:21.199Z,2.30
2022-11-12T04:30:10.037Z,2.00
2022-11-12T04:32:46.620Z,2.40
2022-11-12T04:35:18.891Z,2.90
2022-11-12T04:37:49.550Z,3.10
2022-11-12T04:40:40.300Z,2.30
2022-11-12T04:43:31.306Z,3.00
2022-11-12T04:46:02.984Z,3.20
2022-11-12T04:48:33.743Z,1.90
2022-11-12T04:51:26.487Z,2.40
2022-11-12T04:53:56.915Z,2.10
2022-11-12T04:56:27.339Z,2.40
2022-11-12T04:58:57.919Z,1.70
2022-11-12T05:01:29.034Z,2.50
2022-11-12T05:03:59.794Z,2.90
2022-11-12T05:06:48.032Z,2.50
2022-11-12T05:09:18.598Z,2.20
2022-11-12T05:11:49.451Z,3.10
2022-11-12T05:14:20.180Z,2.20
2022-11-12T05:16:51.163Z,3.50
2022-11-12T05:19:21.814Z,2.40
2022-11-12T05:22:10.908Z,3.10
2022-11-12T05:24:45.552Z,2.30
2022-11-12T05:27:17.927Z,2.30
2022-11-12T05:29:48.653Z,2.10
2022-11-12T05:32:19.579Z,2.90
2022-11-12T05:34:50.298Z,2.10
2022-11-12T05:37:20.858Z,4.60
2022-11-12T05:39:51.850Z,2.50
2022-11-12T05:42:22.599Z,3.60
2022-11-12T05:44:53.313Z,2.60
2022-11-12T05:47:24.358Z,3.00
2022-11-12T05:49:55.430Z,3.30
2022-11-12T05:52:25.789Z,1.90
2022-11-12T05:54:57.237Z,1.80
2022-11-12T05:57:29.287Z,2.40
2022-11-12T05:59:59.605Z,2.60
2022-11-12T06:02:30.577Z,3.50
2022-11-12T06:05:00.987Z,3.20
2022-11-12T06:07:31.604Z,4.00
2022-11-12T06:10:02.593Z,2.60
2022-11-12T06:12:33.014Z,2.40
2022-11-12T06:15:03.408Z,2.90
2022-11-12T06:17:33.848Z,5.10
2022-11-12T06:20:04.376Z,5.70
2022-11-12T06:22:35.025Z,5.00
2022-11-12T06:25:06.316Z,3.50
2022-11-12T06:27:36.688Z,4.40
2022-11-12T06:30:09.145Z,2.00
2022-11-12T06:32:39.709Z,1.70
2022-11-12T06:35:11.256Z,2.00
2022-11-12T06:37:41.751Z,2.10
2022-11-12T06:40:13.188Z,2.30
2022-11-12T06:42:44.129Z,2.20
2022-11-12T06:45:14.768Z,3.20
2022-11-12T06:47:45.152Z,2.30
2022-11-12T06:50:16.836Z,3.10
2022-11-12T06:52:47.944Z,3.00
2022-11-12T06:55:18.497Z,2.80
2022-11-12T06:57:54.145Z,2.60
2022-11-12T07:00:24.655Z,3.50
2022-11-12T07:02:55.485Z,3.40
2022-11-12T07:05:26.760Z,3.90
2022-11-12T07:07:58.701Z,3.90
2022-11-12T07:10:29.106Z,2.80
2022-11-12T07:12:59.703Z,2.30
2022-11-12T07:15:30.419Z,2.60
2022-11-12T07:18:00.809Z,2.30
2022-11-12T07:20:31.711Z,2.40
2022-11-12T07:23:03.976Z,2.10
2022-11-12T07:25:34.336Z,3.20
2022-11-12T07:28:05.346Z,2.30
2022-11-12T07:30:36.328Z,4.90
2022-11-12T07:33:07.224Z,4.10
2022-11-12T07:35:38.337Z,4.10
2022-11-12T07:38:09.086Z,4.50
2022-11-12T07:40:39.867Z,4.60
2022-11-12T07:43:11.033Z,4.10
2022-11-12T07:45:41.948Z,3.30
2022-11-12T07:48:12.620Z,2.90
2022-11-12T07:50:42.937Z,4.90
2022-11-12T07:53:13.519Z,3.70
2022-11-12T07:55:43.804Z,5.10
2022-11-12T07:58:14.540Z,3.30
2022-11-12T08:00:44.893Z,2.50
2022-11-12T08:03:15.614Z,3.00
2022-11-12T08:05:46.576Z,2.40
2022-11-12T08:08:17.388Z,3.20
2022-11-12T08:10:47.821Z,5.10
2022-11-12T08:13:18.194Z,2.40
2022-11-12T08:15:52.206Z,2.80
2022-11-12T08:18:22.954Z,5.80
2022-11-12T08:20:53.717Z,4.10
2022-11-12T08:23:24.104Z,4.30
2022-11-12T08:25:58.171Z,8.20
2022-11-12T08:28:29.698Z,6.40
2022-11-12T08:31:04.459Z,7.40
2022-11-12T08:33:35.070Z,8.00
2022-11-12T08:36:07.755Z,6.10
2022-11-12T08:38:39.108Z,5.40
2022-11-12T08:41:12.296Z,5.00
2022-11-12T08:43:43.316Z,4.50
2022-11-12T08:46:14.178Z,3.60
2022-11-12T08:48:44.518Z,3.80
2022-11-12T08:51:15.627Z,4.90
2022-11-12T08:53:46.436Z,4.40
2022-11-12T08:56:17.549Z,5.10
2022-11-12T08:58:48.730Z,4.20
2022-11-12T09:01:19.416Z,3.80
2022-11-12T09:03:51.657Z,5.50
2022-11-12T09:06:22.425Z,4.30
2022-11-12T09:08:53.526Z,3.80
2022-11-12T09:11:24.194Z,4.00
2022-11-12T09:13:57.231Z,8.00
2022-11-12T09:16:28.059Z,7.60
2022-11-12T09:18:58.724Z,6.30
2022-11-12T09:21:29.132Z,6.20
2022-11-12T09:23:59.859Z,7.20
2022-11-12T09:26:30.622Z,5.70
2022-11-12T09:29:01.572Z,6.80
2022-11-12T09:31:31.925Z,5.00
2022-11-12T09:34:03.058Z,6.30
2022-11-12T09:36:39.499Z,6.30
2022-11-12T09:39:10.925Z,7.70
2022-11-12T09:41:43.231Z,9.20
2022-11-12T09:44:16.766Z,6.30
2022-11-12T09:46:50.329Z,5.70
2022-11-12T09:49:24.356Z,5.40
2022-11-12T09:51:57.967Z,4.60
2022-11-12T09:54:31.366Z,4.40
2022-11-12T09:57:03.098Z,6.30
2022-11-12T09:59:36.285Z,6.30
2022-11-12T10:02:24.533Z,5.00
2022-11-12T10:05:12.071Z,6.10
2022-11-12T10:07:55.527Z,5.50
2022-11-12T10:10:36.351Z,5.70
2022-11-12T10:13:21.577Z,4.10
2022-11-12T10:16:22.217Z,7.10
2022-11-12T10:19:05.068Z,5.20
2022-11-12T10:21:42.792Z,4.20
2022-11-12T10:24:14.157Z,7.00
2022-11-12T10:26:45.640Z,5.50
2022-11-12T10:29:28.147Z,6.20
2022-11-12T10:31:58.579Z,8.50
2022-11-12T10:34:31.179Z,8.10
2022-11-12T10:37:05.630Z,18.60
2022-11-12T10:39:40.712Z,13.10
2022-11-12T10:42:14.438Z,7.90
2022-11-12T10:44:45.799Z,6.60
2022-11-12T10:47:28.870Z,7.70
2022-11-12T10:50:20.093Z,6.40
2022-11-12T10:52:59.395Z,5.50
2022-11-12T10:55:31.562Z,6.20
2022-11-12T10:58:16.484Z,7.10
2022-11-12T11:01:04.232Z,6.00
2022-11-12T11:06:07.914Z,3.80
2022-11-12T11:08:41.561Z,4.90
2022-11-12T11:11:22.866Z,4.90
2022-11-12T11:13:56.006Z,5.80
2022-11-12T11:16:28.778Z,4.80
2022-11-12T11:19:01.014Z,8.50
2022-11-12T11:21:47.848Z,7.30
2022-11-12T11:24:29.928Z,6.50
2022-11-12T11:27:04.966Z,5.50
2022-11-12T11:30:02.440Z,4.40
2022-11-12T11:32:47.585Z,5.60
2022-11-12T11:35:27.180Z,6.10
2022-11-12T11:38:17.021Z,5.00
2022-11-12T11:40:57.800Z,5.00
2022-11-12T11:43:49.009Z,4.60
2022-11-12T11:46:33.239Z,4.70
2022-11-12T11:49:21.686Z,16.30
2022-11-12T11:51:58.431Z,10.90
2022-11-12T11:54:47.127Z,4.30
2022-11-12T11:57:22.824Z,5.40
2022-11-12T12:00:05.923Z,4.60
2022-11-12T12:02:50.438Z,5.80
2022-11-12T12:05:34.740Z,4.10
2022-11-12T12:08:10.219Z,5.10
2022-11-12T12:11:07.611Z,4.90
2022-11-12T12:13:51.951Z,4.80
2022-11-12T12:16:35.255Z,4.70
2022-11-12T12:19:12.851Z,5.80
2022-11-12T12:21:49.598Z,4.20
2022-11-12T12:24:25.995Z,3.90
2022-11-12T12:27:03.083Z,5.00
2022-11-12T12:29:40.637Z,4.30
2022-11-12T12:32:20.451Z,2.60
2022-11-12T12:35:00.320Z,4.70
2022-11-12T12:37:38.566Z,4.30
2022-11-12T12:40:18.749Z,2.80
2022-11-12T12:42:55.145Z,3.10
2022-11-12T12:45:41.185Z,2.80
2022-11-12T12:48:18.736Z,3.00
2022-11-12T12:50:50.667Z,2.80
2022-11-12T12:53:34.655Z,3.00
2022-11-12T12:56:07.379Z,3.20
2022-11-12T12:58:46.792Z,2.60
2022-11-12T13:01:32.045Z,2.80
2022-11-12T13:04:07.149Z,3.90
2022-11-12T13:06:39.586Z,5.90
2022-11-12T13:09:25.829Z,4.60
2022-11-12T13:12:14.884Z,5.20
2022-11-12T13:14:54.427Z,2.80
2022-11-12T13:17:45.867Z,4.20
2022-11-12T13:20:37.956Z,4.80
2022-11-12T13:23:59.908Z,5.90
2022-11-12T13:26:49.909Z,4.10
2022-11-12T13:29:43.168Z,6.90
2022-11-12T13:32:35.515Z,9.70
2022-11-12T13:35:34.258Z,7.90
2022-11-12T13:38:12.883Z,6.90
2022-11-12T13:40:46.479Z,7.90
2022-11-12T13:43:35.767Z,11.20
2022-11-12T13:46:28.655Z,8.20
2022-11-12T13:49:02.434Z,8.10
2022-11-12T13:51:41.180Z,10.20
2022-11-12T13:54:35.846Z,7.80
2022-11-12T13:57:30.544Z,7.60
2022-11-12T14:00:24.199Z,4.90
2022-11-12T14:02:58.309Z,3.60
2022-11-12T14:05:31.288Z,6.00
2022-11-12T14:08:35.044Z,7.60
2022-11-12T14:11:22.004Z,4.00
2022-11-12T14:14:05.448Z,4.70
2022-11-12T14:16:48.894Z,4.30
2022-11-12T14:19:34.696Z,3.80
2022-11-12T14:22:14.799Z,3.00
2022-11-12T14:24:48.255Z,3.80
2022-11-12T14:27:33.532Z,3.50
2022-11-12T14:30:18.397Z,5.90
2022-11-12T14:32:50.428Z,6.20
2022-11-12T14:35:31.512Z,9.20
2022-11-12T14:38:11.184Z,7.00
2022-11-12T14:40:47.680Z,6.30
2022-11-12T14:43:28.179Z,5.10
2022-11-12T14:46:00.972Z,3.40
2022-11-12T14:48:36.026Z,4.90
2022-11-12T14:51:12.201Z,4.50
2022-11-12T14:53:47.129Z,3.50
2022-11-12T14:56:25.607Z,5.40
2022-11-12T14:58:57.625Z,6.40
2022-11-12T15:04:24.974Z,4.70
2022-11-12T15:06:57.739Z,9.00
2022-11-12T15:09:39.227Z,12.80
2022-11-12T15:12:14.263Z,11.70
2022-11-12T15:14:44.674Z,10.20
2022-11-12T15:17:29.963Z,11.30
2022-11-12T15:20:06.845Z,7.80
2022-11-12T15:22:37.428Z,12.20
2022-11-12T15:25:23.567Z,8.70
2022-11-12T15:27:54.580Z,18.20
2022-11-12T15:30:28.189Z,10.30
2022-11-12T15:33:18.757Z,11.30
2022-11-12T15:35:58.750Z,10.30
2022-11-12T15:38:35.526Z,9.00
2022-11-12T15:41:06.913Z,11.20
2022-11-12T15:43:42.738Z,5.50
2022-11-12T15:46:15.659Z,11.00
2022-11-12T15:48:46.943Z,16.20
2022-11-12T15:51:20.354Z,21.70
2022-11-12T15:53:51.261Z,21.80
2022-11-12T15:56:22.624Z,7.30
2022-11-12T15:58:53.344Z,5.80
2022-11-12T16:01:24.153Z,8.30
2022-11-12T16:03:54.958Z,2.90
2022-11-12T16:06:25.847Z,7.30
2022-11-12T16:08:56.716Z,2.90
2022-11-12T16:11:39.713Z,3.30
2022-11-12T16:14:14.080Z,3.30
2022-11-12T16:16:45.099Z,6.80
2022-11-12T16:19:16.796Z,8.20
2022-11-12T16:21:47.614Z,10.10
2022-11-12T16:24:18.340Z,9.20
2022-11-12T16:26:49.068Z,8.50
2022-11-12T16:29:19.855Z,10.10
2022-11-12T16:31:50.274Z,8.60
2022-11-12T16:34:21.642Z,8.30
2022-11-12T16:36:52.222Z,7.70
2022-11-12T16:39:22.863Z,7.00
2022-11-12T16:41:53.476Z,7.70
2022-11-12T16:44:24.538Z,7.50
2022-11-12T16:46:55.830Z,4.90
2022-11-12T16:49:27.244Z,5.60
2022-11-12T16:51:58.974Z,9.50
2022-11-12T16:54:29.736Z,7.80
2022-11-12T16:57:00.926Z,8.40
2022-11-12T16:59:31.311Z,8.30
2022-11-12T17:02:01.736Z,7.90
2022-11-12T17:04:32.770Z,7.50
2022-11-12T17:07:06.335Z,7.80
2022-11-12T17:09:37.091Z,5.40
2022-11-12T17:12:08.609Z,6.60
2022-11-12T17:14:39.455Z,10.60
2022-11-12T17:17:10.199Z,9.90
2022-11-12T17:19:40.978Z,7.00
2022-11-12T17:22:11.967Z,6.00
2022-11-12T17:24:42.729Z,6.20
2022-11-12T17:27:14.046Z,5.90
2022-11-12T17:29:44.443Z,6.80
2022-11-12T17:32:15.498Z,6.90
2022-11-12T17:34:45.955Z,3.90
2022-11-12T17:37:17.088Z,3.90
2022-11-12T17:39:47.828Z,5.30
2022-11-12T17:42:19.285Z,7.60
2022-11-12T17:44:49.962Z,7.70
2022-11-12T17:47:20.372Z,3.60
2022-11-12T17:49:50.722Z,5.50
2022-11-12T17:52:21.142Z,3.80
2022-11-12T17:54:52.358Z,6.20
2022-11-12T17:57:22.782Z,6.50
2022-11-12T17:59:53.819Z,6.40
2022-11-12T18:02:24.964Z,9.90
2022-11-12T18:04:55.392Z,8.00
2022-11-12T18:07:26.330Z,12.20
2022-11-12T18:09:57.109Z,7.60
2022-11-12T18:12:27.680Z,5.30
2022-11-12T18:14:58.455Z,6.60
2022-11-12T18:17:29.309Z,8.10
2022-11-12T18:19:59.747Z,7.80
2022-11-12T18:22:30.219Z,5.10
2022-11-12T18:25:01.188Z,8.70
2022-11-12T18:27:31.726Z,11.50
2022-11-12T18:30:02.636Z,9.30
2022-11-12T18:32:33.740Z,7.40
2022-11-12T18:35:04.346Z,5.40
2022-11-12T18:37:34.826Z,6.60
2022-11-12T18:40:06.409Z,6.50
2022-11-12T18:42:36.859Z,9.00
2022-11-12T18:45:09.422Z,7.40
2022-11-12T18:47:39.835Z,10.00
2022-11-12T18:50:10.646Z,9.50
2022-11-12T18:52:41.282Z,13.10
2022-11-12T18:55:12.723Z,16.00
2022-11-12T18:57:43.079Z,14.70
2022-11-12T19:00:16.677Z,12.20
2022-11-12T19:02:47.770Z,10.40
2022-11-12T19:05:20.793Z,8.20
2022-11-12T19:07:51.145Z,10.40
2022-11-12T19:10:21.710Z,9.20
2022-11-12T19:12:52.359Z,9.20
2022-11-12T19:15:26.738Z,5.30
2022-11-12T19:17:57.893Z,7.80
2022-11-12T19:20:28.724Z,7.60
2022-11-12T19:22:59.409Z,8.10
2022-11-12T19:25:30.283Z,8.10
2022-11-12T19:28:01.072Z,11.10
2022-11-12T19:30:31.797Z,10.30
2022-11-12T19:33:02.513Z,6.90
2022-11-12T19:35:33.511Z,8.90
2022-11-12T19:38:04.058Z,8.40
2022-11-12T19:40:34.970Z,8.80
2022-11-12T19:43:05.379Z,8.80
2022-11-12T19:45:35.724Z,7.40
2022-11-12T19:48:07.192Z,9.70
2022-11-12T19:50:37.695Z,8.60
2022-11-12T19:53:08.624Z,6.80
2022-11-12T19:55:40.174Z,7.40
2022-11-12T19:58:10.688Z,8.20
2022-11-12T20:00:41.517Z,11.00
2022-11-12T20:03:11.994Z,8.80
2022-11-12T20:05:42.380Z,8.30
2022-11-12T20:08:12.792Z,7.40
2022-11-12T20:10:43.808Z,6.40
2022-11-12T20:13:14.584Z,7.50
2022-11-12T20:15:44.981Z,9.30
2022-11-12T20:18:16.373Z,6.40
2022-11-12T20:20:51.859Z,9.70
2022-11-12T20:23:23.731Z,7.50
2022-11-12T20:25:54.824Z,8.20
2022-11-12T20:28:25.839Z,9.10
2022-11-12T20:31:02.801Z,6.60
2022-11-12T20:33:37.907Z,8.40
2022-11-12T20:36:13.527Z,8.10
2022-11-12T20:38:45.612Z,6.90
2022-11-12T20:41:17.913Z,9.60
2022-11-12T20:43:48.943Z,8.50
2022-11-12T20:46:19.849Z,9.80
2022-11-12T20:48:50.648Z,7.30
2022-11-12T20:51:24.367Z,8.70
2022-11-12T20:54:00.021Z,10.00
2022-11-12T20:56:32.516Z,9.30
2022-11-12T20:59:03.561Z,8.50
2022-11-12T21:01:33.947Z,7.50
2022-11-12T21:04:04.798Z,10.10
2022-11-12T21:06:35.208Z,8.80
2022-11-12T21:09:05.870Z,8.10
2022-11-12T21:11:36.657Z,6.20
2022-11-12T21:14:07.034Z,6.90
2022-11-12T21:16:37.563Z,7.80
2022-11-12T21:19:08.225Z,9.30
2022-11-12T21:21:39.230Z,6.90
2022-11-12T21:24:10.446Z,7.70
2022-11-12T21:26:41.207Z,7.10
2022-11-12T21:29:13.544Z,11.60
2022-11-12T21:31:47.437Z,8.50
2022-11-12T21:34:18.264Z,10.00
2022-11-12T21:36:48.702Z,10.20
2022-11-12T21:39:19.272Z,6.60
2022-11-12T21:41:50.028Z,8.10
2022-11-12T21:44:20.416Z,9.40
2022-11-12T21:46:51.368Z,10.80
2022-11-12T21:49:22.274Z,12.20
2022-11-12T21:51:52.808Z,9.80
2022-11-12T21:54:23.345Z,11.00
2022-11-12T21:56:53.748Z,8.70
2022-11-12T21:59:24.597Z,8.70
2022-11-12T22:01:55.031Z,9.80
2022-11-12T22:04:25.479Z,8.50
2022-11-12T22:06:56.401Z,9.40
2022-11-12T22:09:27.174Z,8.50
2022-11-12T22:11:57.582Z,7.70
2022-11-12T22:14:28.460Z,9.60
2022-11-12T22:16:58.784Z,8.40
2022-11-12T22:19:30.920Z,13.50
2022-11-12T22:22:01.615Z,10.20
2022-11-12T22:24:32.064Z,10.70
2022-11-12T22:27:05.570Z,11.80
2022-11-12T22:29:36.272Z,7.60
2022-11-12T22:32:07.656Z,12.50
2022-11-12T22:34:38.047Z,13.00
2022-11-12T22:37:09.852Z,9.70
2022-11-12T22:39:40.564Z,9.50
2022-11-12T22:42:11.247Z,10.80
2022-11-12T22:44:41.703Z,11.00
2022-11-12T22:47:12.476Z,9.30
2022-11-12T22:49:43.168Z,11.70
2022-11-12T22:52:14.079Z,8.50
2022-11-12T22:54:44.559Z,7.20
2022-11-12T22:57:15.103Z,6.90
2022-11-12T22:59:46.137Z,7.70
2022-11-12T23:02:17.179Z,10.40
2022-11-12T23:04:47.609Z,11.30
2022-11-12T23:07:18.340Z,9.20
2022-11-12T23:09:49.176Z,10.40
2022-11-12T23:12:20.119Z,7.80
2022-11-12T23:14:51.406Z,8.30
2022-11-12T23:17:22.312Z,8.70
2022-11-12T23:19:52.691Z,7.80
2022-11-12T23:22:23.571Z,7.10
2022-11-12T23:24:53.949Z,8.20
2022-11-12T23:27:24.346Z,8.40
2022-11-12T23:29:55.383Z,8.50
2022-11-12T23:32:25.987Z,10.00
2022-11-12T23:34:56.362Z,9.30
2022-11-12T23:37:26.820Z,10.00
2022-11-12T23:39:57.198Z,9.90
2022-11-12T23:42:29.146Z,6.80
2022-11-12T23:44:59.702Z,9.00
2022-11-12T23:47:30.395Z,8.70
2022-11-12T23:50:01.147Z,6.70
2022-11-12T23:52:31.499Z,6.90
2022-11-12T23:55:02.840Z,14.30
2022-11-12T23:57:34.095Z,9.20
